Time;durP1;ratioP1;P1;durP2;ratioP2;P2;SDS_P1;SDS_P2;PMS_P1;PMS_P2;Temp;Humidity;BMP_temperature;BMP_pressure;BME280_temperature;BME280_humidity;BME280_pressure;Samples;Min_cycle;Max_cycle;Signal;HPM_P1;HPM_P2
2022/06/24 06:46:02;;;;;;;3.42;2.10;;;21.80;99.90;;;;;;5070818;28;20546;-72
2022/06/24 06:48:27;;;;;;;2.90;1.70;;;20.90;99.90;;;;;;5070681;28;20164;-69
2022/06/24 06:50:55;;;;;;;5.72;2.40;;;21.00;99.90;;;;;;5070615;28;20691;-69
2022/06/24 06:53:21;;;;;;;4.45;2.47;;;21.00;99.90;;;;;;5070501;28;20164;-69
2022/06/24 06:55:46;;;;;;;3.38;3.08;;;21.00;99.90;;;;;;5070644;28;20167;-69
2022/06/24 06:58:12;;;;;;;7.07;6.78;;;20.90;99.90;;;;;;5070441;28;20172;-72
2022/06/24 07:00:38;;;;;;;15.05;14.45;;;20.80;99.90;;;;;;5070422;28;20716;-68
2022/06/24 07:03:03;;;;;;;15.52;14.85;;;20.80;99.90;;;;;;5070425;28;20690;-69
2022/06/24 07:05:29;;;;;;;27.48;26.17;;;20.90;99.90;;;;;;5070288;28;20192;-69
2022/06/24 07:07:54;;;;;;;41.13;39.22;;;20.90;99.90;;;;;;5070260;28;20164;-69
2022/06/24 07:10:20;;;;;;;90.80;86.25;;;21.00;99.90;;;;;;5070162;28;20649;-70
2022/06/24 07:12:46;;;;;;;121.22;115.32;;;21.00;99.90;;;;;;5070245;28;20508;-69
2022/06/24 07:15:14;;;;;;;137.98;130.75;;;20.90;99.90;;;;;;5070134;28;20179;-69
2022/06/24 07:17:40;;;;;;;94.80;90.07;;;20.80;99.90;;;;;;5069998;28;20168;-69
2022/06/24 07:20:06;;;;;;;113.78;108.15;;;20.70;99.90;;;;;;5070078;28;20751;-69
2022/06/24 07:22:32;;;;;;;78.03;74.22;;;20.60;99.90;;;;;;5070025;28;20255;-69
2022/06/24 07:24:57;;;;;;;73.65;70.05;;;20.60;99.90;;;;;;5069878;28;20286;-69
2022/06/24 07:27:23;;;;;;;71.47;67.85;;;20.50;99.90;;;;;;5069867;28;20251;-71
2022/06/24 07:29:49;;;;;;;68.10;64.85;;;20.50;99.90;;;;;;5068509;28;20172;-69
2022/06/24 07:32:14;;;;;;;56.05;53.40;;;20.50;99.90;;;;;;5068533;28;20174;-70
2022/06/24 07:34:40;;;;;;;56.63;53.65;;;20.50;99.90;;;;;;5069694;28;20164;-73
2022/06/24 07:37:06;;;;;;;51.30;48.78;;;20.50;99.90;;;;;;5069739;28;20218;-73
2022/06/24 07:39:32;;;;;;;34.70;33.00;;;20.50;99.90;;;;;;5069637;28;20168;-73
2022/06/24 07:41:57;;;;;;;22.67;21.38;;;20.60;99.90;;;;;;5069602;28;20697;-73
2022/06/24 07:44:23;;;;;;;32.47;31.00;;;20.80;99.90;;;;;;5069198;28;20691;-74
2022/06/24 07:46:50;;;;;;;62.75;59.70;;;21.00;99.90;;;;;;5069379;28;20180;-72
2022/06/24 07:49:16;;;;;;;141.05;134.18;;;21.20;99.90;;;;;;5068106;28;20176;-73
2022/06/24 07:51:43;;;;;;;278.13;264.67;;;21.40;99.90;;;;;;5069349;28;20657;-73
2022/06/24 07:54:08;;;;;;;388.48;368.83;;;21.60;99.90;;;;;;5069336;28;20168;-73
2022/06/24 07:56:56;;;;;;;408.40;387.38;;;21.80;99.90;;;;;;5059396;28;20176;-72
2022/06/24 07:59:23;;;;;;;322.80;307.38;;;22.00;99.90;;;;;;5056080;28;20164;-72
2022/06/24 08:01:50;;;;;;;201.18;190.80;;;22.10;99.90;;;;;;5055995;28;20255;-74
2022/06/24 08:04:15;;;;;;;548.05;516.08;;;22.00;99.90;;;;;;5054561;28;20246;-74
2022/06/24 08:06:46;;;;;;;480.65;453.02;;;22.10;99.90;;;;;;5055889;28;20165;-72
2022/06/24 08:09:15;;;;;;;590.72;555.22;;;22.10;99.90;;;;;;5055856;28;20546;-72
2022/06/24 08:11:41;;;;;;;543.65;512.13;;;22.10;99.90;;;;;;5055748;28;20545;-74
2022/06/24 08:14:07;;;;;;;730.13;685.45;;;22.10;99.90;;;;;;5055823;28;20267;-73
2022/06/24 08:16:32;;;;;;;778.60;730.95;;;22.10;99.90;;;;;;5055682;28;20518;-70
2022/06/24 08:18:58;;;;;;;854.95;799.40;;;22.20;99.90;;;;;;5055666;28;20196;-73
2022/06/24 08:21:24;;;;;;;892.92;833.28;;;22.30;99.90;;;;;;5054352;28;20188;-70
2022/06/24 08:23:49;;;;;;;890.53;830.30;;;22.30;99.90;;;;;;5055543;28;20164;-71
2022/06/24 08:26:16;;;;;;;913.80;851.05;;;22.30;99.90;;;;;;5054193;28;20164;-71
2022/06/24 08:28:42;;;;;;;1010.35;933.25;;;22.30;99.90;;;;;;5055460;28;20173;-70
2022/06/24 08:31:08;;;;;;;1014.53;937.30;;;22.20;99.90;;;;;;5055431;28;20219;-71
2022/06/24 08:33:33;;;;;;;1152.45;999.90;;;22.40;99.90;;;;;;5055355;28;20168;-71
2022/06/24 08:35:59;;;;;;;1053.82;967.90;;;22.40;99.90;;;;;;5055350;28;20176;-71
2022/06/24 08:38:24;;;;;;;1104.30;999.90;;;22.40;99.90;;;;;;5055339;28;20172;-71
2022/06/24 08:40:53;;;;;;;1106.85;999.90;;;22.30;99.90;;;;;;5055184;28;20572;-71
2022/06/24 08:43:21;;;;;;;1010.45;930.30;;;22.10;99.90;;;;;;5055200;28;20172;-71
2022/06/24 08:45:49;;;;;;;791.28;734.10;;;21.80;99.90;;;;;;5054913;28;20689;-71
2022/06/24 08:48:15;;;;;;;482.33;451.70;;;21.50;99.90;;;;;;5055184;28;20176;-71
2022/06/24 08:50:41;;;;;;;479.33;453.02;;;21.20;99.90;;;;;;5053744;28;20164;-71
2022/06/24 08:53:09;;;;;;;219.85;207.82;;;20.70;99.90;;;;;;5055044;28;20222;-70
2022/06/24 08:55:37;;;;;;;166.73;158.02;;;20.10;99.90;;;;;;5054832;28;20173;-70
2022/06/24 08:58:13;;;;;;;91.32;86.97;;;19.50;99.90;;;;;;5055023;28;20512;-71
2022/06/24 09:00:40;;;;;;;19.48;18.65;;;18.90;99.90;;;;;;5053643;28;20176;-70
2022/06/24 09:31:08;;;;;;;4.63;2.55;;;17.40;99.90;;;;;;5131747;27;20458;-69
2022/06/24 09:33:41;;;;;;;3.22;3.03;;;17.40;99.90;;;;;;5131747;28;20170;-78
2022/06/24 09:36:12;;;;;;;3.45;3.15;;;17.50;99.90;;;;;;5131744;28;20167;-80
2022/06/24 09:39:20;;;;;;;3.20;3.00;;;17.50;99.90;;;;;;5113313;28;20194;-75
2022/06/24 09:41:53;;;;;;;3.42;3.08;;;17.50;99.90;;;;;;5128386;28;20199;-77
2022/06/24 09:44:19;;;;;;;4.45;2.92;;;17.60;99.90;;;;;;5131460;28;20190;-76
2022/06/24 09:46:45;;;;;;;3.63;3.30;;;17.70;99.90;;;;;;5131282;28;20190;-69
2022/06/24 09:49:13;;;;;;;6.53;3.33;;;17.80;99.90;;;;;;5131203;28;20638;-69
2022/06/24 09:51:40;;;;;;;2.95;2.72;;;17.80;99.90;;;;;;5130662;28;20171;-67
2022/06/24 09:54:06;;;;;;;3.42;2.90;;;17.90;99.90;;;;;;5130371;28;20158;-69
2022/06/24 09:56:33;;;;;;;3.70;3.20;;;18.10;99.90;;;;;;5130514;28;20618;-69
2022/06/24 10:01:45;;;;;;;3.78;3.15;;;18.60;99.90;;;;;;5131521;28;20177;-69
2022/06/24 10:04:15;;;;;;;3.40;3.10;;;18.90;99.90;;;;;;5130872;28;20253;-71
2022/06/24 10:06:46;;;;;;;3.28;2.90;;;19.20;99.90;;;;;;5130875;28;20260;-71
2022/06/24 10:09:13;;;;;;;2.63;2.42;;;19.40;99.90;;;;;;5130933;27;20189;-71
2022/06/24 10:11:42;;;;;;;3.78;2.78;;;19.60;99.90;;;;;;5130858;27;20199;-71
2022/06/24 10:14:08;;;;;;;2.88;2.65;;;19.80;99.90;;;;;;5131077;27;20206;-71
2022/06/24 10:16:35;;;;;;;5.03;3.00;;;19.90;99.90;;;;;;5130767;27;20515;-70
2022/06/24 10:19:03;;;;;;;4.00;3.15;;;20.20;99.90;;;;;;5130813;27;20169;-71
2022/06/24 10:21:29;;;;;;;2.88;2.53;;;20.30;99.90;;;;;;5129560;28;20572;-71
2022/06/24 10:23:56;;;;;;;5.13;2.45;;;20.40;99.90;;;;;;5130897;27;20166;-71
2022/06/24 10:26:34;;;;;;;2.65;2.45;;;20.70;99.90;;;;;;5130754;27;20162;-71
2022/06/24 10:29:00;;;;;;;3.10;2.90;;;20.90;99.90;;;;;;5129842;27;20300;-70
2022/06/24 10:31:52;;;;;;;2.97;2.78;;;20.90;99.90;;;;;;5130494;27;20554;-70
2022/06/24 10:34:25;;;;;;;2.80;2.60;;;20.90;99.90;;;;;;5130648;27;20207;-70
2022/06/24 10:36:59;;;;;;;4.13;3.83;;;20.80;99.90;;;;;;5130575;27;20215;-71
2022/06/24 10:39:27;;;;;;;5.57;3.03;;;20.80;99.90;;;;;;5130457;27;20170;-71
2022/06/24 10:42:07;;;;;;;4.55;3.28;;;20.90;99.90;;;;;;5119803;27;20216;-70
2022/06/24 10:44:35;;;;;;;3.60;3.40;;;20.90;99.90;;;;;;5116638;28;20237;-70
2022/06/24 10:47:16;;;;;;;5.63;4.57;;;20.90;99.90;;;;;;5116714;28;20215;-70
2022/06/24 10:49:50;;;;;;;3.53;3.22;;;21.00;99.90;;;;;;5116450;28;20864;-70
2022/06/24 10:52:37;;;;;;;3.58;3.38;;;21.20;99.90;;;;;;5116507;28;20158;-70
2022/06/24 10:55:15;;;;;;;3.72;3.42;;;21.30;99.90;;;;;;5116532;28;20162;-70
2022/06/24 10:57:41;;;;;;;4.00;3.70;;;21.30;99.90;;;;;;5116494;28;20333;-70
2022/06/24 11:00:15;;;;;;;4.00;3.67;;;21.20;99.90;;;;;;5116453;27;20174;-70
2022/06/24 11:02:42;;;;;;;5.97;3.83;;;21.10;99.90;;;;;;5116306;28;20170;-70
2022/06/24 11:05:15;;;;;;;6.00;4.68;;;21.00;99.90;;;;;;5116345;28;20296;-70
2022/06/24 11:07:48;;;;;;;4.72;4.43;;;21.00;99.90;;;;;;5116171;28;20218;-70
2022/06/24 11:10:22;;;;;;;5.25;4.85;;;21.10;99.90;;;;;;5116149;28;20201;-70
2022/06/24 11:12:52;;;;;;;4.50;4.25;;;21.30;99.90;;;;;;5116067;28;20182;-70
2022/06/24 11:15:18;;;;;;;4.53;4.22;;;21.40;99.90;;;;;;5116169;28;20496;-71
2022/06/24 11:17:44;;;;;;;4.00;3.70;;;21.30;99.90;;;;;;5116015;27;20163;-73
2022/06/24 11:20:13;;;;;;;7.95;4.95;;;21.30;99.90;;;;;;5116001;28;20170;-69
2022/06/24 11:22:43;;;;;;;5.30;5.00;;;21.30;99.90;;;;;;5115948;28;20170;-70
2022/06/24 11:25:12;;;;;;;4.97;4.60;;;21.30;99.90;;;;;;5115834;28;20166;-69
2022/06/24 11:27:37;;;;;;;7.80;5.43;;;21.20;99.90;;;;;;5115759;28;20174;-70
2022/06/24 11:30:03;;;;;;;5.32;4.78;;;21.20;99.90;;;;;;5114257;28;20221;-70
2022/06/24 11:32:48;;;;;;;5.38;4.55;;;21.10;99.90;;;;;;5115752;28;20162;-70
2022/06/24 11:35:18;;;;;;;5.25;4.88;;;21.00;99.90;;;;;;5115771;28;20166;-70
2022/06/24 11:37:44;;;;;;;6.13;5.63;;;21.20;99.90;;;;;;5115717;28;20195;-69
2022/06/24 11:40:10;;;;;;;4.93;4.68;;;21.40;99.90;;;;;;5115644;28;20190;-70
2022/06/24 11:42:35;;;;;;;6.07;5.70;;;21.80;99.90;;;;;;5115561;28;20194;-70
2022/06/24 11:45:01;;;;;;;5.85;5.40;;;22.00;99.90;;;;;;5115480;28;20651;-70
2022/06/24 11:47:34;;;;;;;5.45;5.15;;;22.10;99.90;;;;;;5115426;28;20170;-74
2022/06/24 11:49:59;;;;;;;4.57;4.22;;;22.50;99.90;;;;;;5115307;28;20200;-74
2022/06/24 11:52:25;;;;;;;3.72;3.53;;;22.90;99.90;;;;;;5114612;28;20158;-74
2022/06/24 11:54:51;;;;;;;4.05;3.85;;;23.20;99.90;;;;;;5115118;28;20241;-74
2022/06/24 11:57:16;;;;;;;4.30;3.90;;;23.30;99.90;;;;;;5115337;27;20611;-75
2022/06/24 11:59:42;;;;;;;3.22;3.03;;;23.40;99.90;;;;;;5115212;28;20166;-74
2022/06/24 12:02:11;;;;;;;4.05;3.10;;;23.30;99.90;;;;;;5115267;28;20528;-75
2022/06/24 12:04:37;;;;;;;3.95;3.65;;;23.20;99.90;;;;;;5115122;28;20166;-74
2022/06/24 12:07:06;;;;;;;3.67;3.28;;;23.00;99.90;;;;;;5115000;28;20643;-75
2022/06/24 12:09:32;;;;;;;3.92;3.63;;;22.60;99.90;;;;;;5114886;27;20338;-75
2022/06/24 12:12:12;;;;;;;4.30;3.90;;;22.40;99.90;;;;;;5113648;28;20261;-72
2022/06/24 12:14:38;;;;;;;3.83;3.63;;;22.20;99.90;;;;;;5114866;28;20527;-73
2022/06/24 12:17:07;;;;;;;4.20;4.00;;;22.00;99.90;;;;;;5114984;28;20159;-74
2022/06/24 12:19:35;;;;;;;3.70;3.40;;;21.90;99.90;;;;;;5114859;28;20619;-74
2022/06/24 12:22:09;;;;;;;5.82;4.38;;;21.80;99.90;;;;;;5113582;28;20177;-73
2022/06/24 12:24:36;;;;;;;4.47;3.97;;;21.70;99.90;;;;;;5114677;28;20219;-73
2022/06/24 12:27:04;;;;;;;4.82;4.40;;;21.60;99.90;;;;;;5114731;28;20167;-73
2022/06/24 12:29:34;;;;;;;5.35;4.53;;;21.40;99.90;;;;;;5114507;28;20609;-73
2022/06/24 12:32:01;;;;;;;5.30;4.95;;;21.20;99.90;;;;;;5113685;28;20270;-73
2022/06/24 12:34:31;;;;;;;5.65;5.07;;;21.10;99.90;;;;;;5113670;28;20188;-73
2022/06/24 12:37:08;;;;;;;6.10;5.70;;;21.10;99.90;;;;;;5113767;28;20303;-72
2022/06/24 12:39:36;;;;;;;5.88;5.45;;;21.10;99.90;;;;;;5113558;28;20582;-72
2022/06/24 12:42:05;;;;;;;6.45;5.47;;;21.10;99.90;;;;;;5114820;28;20270;-73
2022/06/24 12:44:55;;;;;;;6.03;5.53;;;21.10;99.90;;;;;;5114976;28;20159;-72
2022/06/24 12:53:00;;;;;;;5.85;5.50;;;20.90;99.90;;;;;;5114767;28;20513;-69
2022/06/24 12:55:26;;;;;;;7.18;6.55;;;20.80;99.90;;;;;;5114481;28;20158;-69
2022/06/24 12:57:52;;;;;;;6.85;6.40;;;20.70;99.90;;;;;;5114519;28;20247;-69
2022/06/24 13:00:17;;;;;;;7.82;6.68;;;20.60;99.90;;;;;;5114537;28;20194;-69
2022/06/24 13:02:48;;;;;;;8.73;7.70;;;20.50;99.90;;;;;;5112882;28;20196;-70
2022/06/24 13:05:15;;;;;;;7.20;6.72;;;20.50;99.90;;;;;;5112866;28;20562;-73
2022/06/24 13:07:41;;;;;;;10.45;7.40;;;20.50;99.90;;;;;;5114192;28;20166;-71
2022/06/24 13:10:08;;;;;;;9.07;8.23;;;20.60;99.90;;;;;;5114092;28;20285;-71
2022/06/24 13:12:34;;;;;;;8.48;7.78;;;20.70;99.90;;;;;;5113996;28;20283;-75
2022/06/24 13:15:02;;;;;;;8.65;7.95;;;21.00;99.90;;;;;;5114210;28;20615;-74
2022/06/24 13:17:28;;;;;;;7.55;6.90;;;21.70;99.90;;;;;;5114413;28;20616;-81
2022/06/24 13:19:53;;;;;;;7.30;6.60;;;22.20;99.90;;;;;;5114233;28;20257;-81
2022/06/24 13:22:19;;;;;;;6.88;6.32;;;22.60;99.90;;;;;;5114086;28;20174;-81
2022/06/24 13:24:45;;;;;;;6.00;5.50;;;22.90;99.90;;;;;;5114083;28;20167;-82
2022/06/24 13:27:12;;;;;;;5.38;5.07;;;23.00;99.90;;;;;;5114301;28;20174;-81
2022/06/24 13:29:37;;;;;;;6.78;5.85;;;23.20;99.90;;;;;;5113760;28;20306;-80
2022/06/24 13:32:03;;;;;;;7.43;6.18;;;23.30;99.90;;;;;;5112872;28;20204;-80
2022/06/24 13:34:29;;;;;;;6.53;6.13;;;23.50;99.90;;;;;;5114034;28;20189;-80
2022/06/24 13:36:55;;;;;;;6.20;5.72;;;23.90;99.90;;;;;;5114026;28;20155;-79
2022/06/24 13:39:20;;;;;;;6.10;5.50;;;24.30;99.90;;;;;;5113971;28;20169;-79
2022/06/24 13:41:46;;;;;;;5.50;5.10;;;24.30;99.90;;;;;;5112495;28;20172;-78
2022/06/24 13:44:13;;;;;;;4.65;4.35;;;24.30;99.90;;;;;;5113804;28;20253;-79
2022/06/24 13:46:39;;;;;;;4.93;4.53;;;24.50;99.90;;;;;;5113804;28;20166;-78
2022/06/24 13:49:04;;;;;;;4.63;4.32;;;24.80;99.90;;;;;;5113637;28;20166;-78
2022/06/24 13:51:30;;;;;;;4.82;4.30;;;25.20;99.90;;;;;;5113529;28;20165;-77
2022/06/24 13:53:56;;;;;;;4.60;4.20;;;25.40;99.90;;;;;;5113588;28;20166;-77
2022/06/24 13:56:22;;;;;;;7.68;4.78;;;25.60;99.90;;;;;;5112993;28;20196;-76
2022/06/24 13:58:48;;;;;;;4.75;4.30;;;25.80;99.90;;;;;;5110923;28;20256;-77
2022/06/24 14:01:15;;;;;;;4.55;4.25;;;25.90;99.90;;;;;;5113532;28;20158;-77
2022/06/24 14:03:41;;;;;;;4.75;4.20;;;26.10;99.90;;;;;;5113319;28;20159;-69
2022/06/24 14:06:10;;;;;;;4.47;4.07;;;26.40;99.90;;;;;;5113487;28;20505;-69
2022/06/24 14:08:40;;;;;;;4.32;3.97;;;26.40;99.90;;;;;;5113388;28;20170;-69
2022/06/24 14:11:11;;;;;;;5.03;4.63;;;26.20;99.90;;;;;;5113392;28;20198;-69
2022/06/24 14:13:38;;;;;;;4.20;3.88;;;26.20;99.90;;;;;;5112265;28;20530;-70
2022/06/24 14:16:04;;;;;;;3.45;3.15;;;26.40;99.90;;;;;;5114347;28;20620;-70
2022/06/24 14:18:30;;;;;;;2.75;2.65;;;26.70;99.90;;;;;;5117571;28;20174;-69
2022/06/24 14:20:56;;;;;;;2.75;2.65;;;26.90;99.90;;;;;;5117430;27;20662;-70
2022/06/24 14:26:06;;;;;;;2.95;2.85;;;27.00;99.90;;;;;;5117406;28;20184;-71
2022/06/24 14:28:31;;;;;;;3.28;3.08;;;26.80;99.90;;;;;;5117308;28;20170;-71
2022/06/24 14:30:57;;;;;;;3.85;2.78;;;26.80;99.90;;;;;;5117032;28;20218;-71
2022/06/24 14:33:22;;;;;;;3.58;3.38;;;27.30;99.90;;;;;;5117269;28;20521;-71
2022/06/24 14:35:48;;;;;;;3.05;2.92;;;27.20;99.90;;;;;;5117211;28;20170;-71
2022/06/24 14:40:58;;;;;;;3.08;2.83;;;27.70;99.90;;;;;;5117402;28;20181;-73
2022/06/24 14:43:24;;;;;;;2.85;2.72;;;27.90;99.90;;;;;;5117168;28;20553;-73
2022/06/24 14:45:49;;;;;;;4.80;3.00;;;27.80;99.90;;;;;;5116004;28;20521;-72
2022/06/24 14:48:18;;;;;;;3.47;3.28;;;27.80;99.90;;;;;;5116941;28;20170;-73
2022/06/24 14:50:44;;;;;;;5.18;2.92;;;28.00;99.90;;;;;;5115497;28;20198;-72
2022/06/24 14:53:10;;;;;;;3.78;3.47;;;28.00;99.90;;;;;;5116948;28;20163;-73
2022/06/24 14:55:36;;;;;;;5.20;2.83;;;28.30;99.90;;;;;;5117024;27;20631;-73
2022/06/24 14:58:01;;;;;;;3.30;3.05;;;28.50;99.90;;;;;;5116834;28;20167;-72
2022/06/24 15:00:28;;;;;;;6.55;2.70;;;28.20;99.90;;;;;;5115563;28;20193;-73
2022/06/24 15:02:54;;;;;;;3.42;3.05;;;27.50;99.90;;;;;;5115587;28;20544;-72
2022/06/24 15:05:20;;;;;;;3.05;2.85;;;26.80;99.90;;;;;;5115597;28;20171;-72
2022/06/24 15:07:46;;;;;;;3.30;3.10;;;26.30;99.90;;;;;;5116399;28;20174;-72
2022/06/24 15:10:13;;;;;;;4.28;3.97;;;25.90;99.90;;;;;;5114914;28;20335;-73
2022/06/24 15:12:39;;;;;;;3.50;3.30;;;25.60;99.90;;;;;;5116168;28;20197;-70
2022/06/24 15:15:05;;;;;;;4.35;3.15;;;25.40;99.90;;;;;;5116163;28;20158;-71
2022/06/24 15:17:31;;;;;;;7.10;3.75;;;25.20;99.90;;;;;;5116087;28;20647;-71
2022/06/24 15:19:57;;;;;;;3.85;3.60;;;25.00;99.90;;;;;;5116066;28;20170;-70
2022/06/24 15:22:23;;;;;;;6.10;3.65;;;24.80;99.90;;;;;;5116354;28;20171;-71
2022/06/24 15:24:50;;;;;;;4.22;3.90;;;24.60;99.90;;;;;;5116311;28;20249;-71
2022/06/24 15:27:17;;;;;;;3.70;3.40;;;24.40;99.90;;;;;;5115872;28;20159;-71
2022/06/24 15:29:42;;;;;;;3.80;3.50;;;24.20;99.90;;;;;;5114503;28;20226;-71
2022/06/24 15:32:09;;;;;;;3.75;3.35;;;24.00;99.90;;;;;;5115940;28;20163;-71
2022/06/24 15:34:35;;;;;;;3.95;2.97;;;23.90;99.90;;;;;;5115909;28;20166;-71
2022/06/24 15:37:01;;;;;;;4.40;3.80;;;23.80;99.90;;;;;;5115822;28;20166;-71
2022/06/24 15:39:27;;;;;;;6.10;4.97;;;23.60;99.90;;;;;;5115723;28;20615;-71
2022/06/24 15:41:53;;;;;;;4.05;3.75;;;23.50;99.90;;;;;;5115666;28;20257;-76
2022/06/24 15:44:19;;;;;;;3.70;3.42;;;23.40;99.90;;;;;;5115746;28;20209;-76
2022/06/24 15:46:45;;;;;;;5.22;3.83;;;23.20;99.90;;;;;;5115603;28;20627;-75
2022/06/24 15:49:11;;;;;;;3.65;3.33;;;23.10;99.90;;;;;;5115321;28;20206;-75
2022/06/24 17:09:49;;;;;;;4.05;3.83;;;20.80;99.90;;;;;;5131833;27;20661;-81
2022/06/24 17:12:14;;;;;;;5.00;4.00;;;19.40;99.90;;;;;;5131760;28;20183;-80
2022/06/24 17:14:40;;;;;;;3.78;3.53;;;19.50;99.90;;;;;;5131687;28;20198;-79
2022/06/24 17:17:06;;;;;;;3.28;3.10;;;19.50;99.90;;;;;;5131640;28;20714;-79
2022/06/24 17:19:31;;;;;;;4.00;3.10;;;19.50;99.90;;;;;;5131543;28;20234;-79
2022/06/24 17:21:57;;;;;;;4.00;3.72;;;19.60;99.90;;;;;;5130266;28;20174;-79
2022/06/24 17:24:22;;;;;;;3.78;3.58;;;19.70;99.90;;;;;;5131593;28;20169;-80
2022/06/24 17:26:48;;;;;;;4.13;3.60;;;19.90;99.90;;;;;;5131576;28;20249;-80
2022/06/24 17:29:14;;;;;;;3.83;3.47;;;20.00;99.90;;;;;;5130016;28;20642;-79
2022/06/24 17:31:39;;;;;;;4.72;3.47;;;20.00;99.90;;;;;;5130090;28;20264;-79
2022/06/24 17:34:05;;;;;;;79.40;11.13;;;20.10;99.90;;;;;;5131347;28;20165;-79
2022/06/24 17:36:31;;;;;;;4.72;3.45;;;20.20;99.90;;;;;;5112984;28;20218;-79
2022/06/24 17:38:56;;;;;;;47.13;8.65;;;20.30;99.90;;;;;;5131458;28;20180;-79
2022/06/24 17:41:22;;;;;;;4.72;3.70;;;20.40;99.90;;;;;;5130499;28;20178;-80
2022/06/24 17:43:48;;;;;;;3.70;3.47;;;20.30;99.90;;;;;;5131362;28;20292;-80
2022/06/24 17:46:15;;;;;;;3.72;3.47;;;20.40;99.90;;;;;;5130451;28;20524;-79
2022/06/24 17:48:41;;;;;;;3.15;2.95;;;20.40;99.90;;;;;;5131276;28;20192;-80
2022/06/24 17:51:07;;;;;;;3.38;3.00;;;20.40;99.90;;;;;;5131295;28;20150;-80
2022/06/24 17:53:32;;;;;;;2.70;2.60;;;20.50;99.90;;;;;;5131397;28;20649;-79
2022/06/24 17:55:58;;;;;;;2.55;2.45;;;20.50;99.90;;;;;;5130977;28;20190;-80
2022/06/24 17:58:23;;;;;;;2.40;2.30;;;20.50;99.90;;;;;;5130928;27;20173;-80
2022/06/24 18:00:49;;;;;;;3.13;2.22;;;20.50;99.90;;;;;;5131046;28;20529;-81
2022/06/24 18:03:14;;;;;;;2.75;2.05;;;20.40;99.90;;;;;;5130886;28;20166;-81
2022/06/24 18:05:40;;;;;;;2.20;2.10;;;20.40;99.90;;;;;;5130951;28;20623;-81
2022/06/24 18:08:06;;;;;;;2.30;2.20;;;20.30;99.90;;;;;;5129943;28;20226;-80
2022/06/24 18:10:31;;;;;;;3.42;2.10;;;20.30;99.90;;;;;;5130801;27;20178;-80
2022/06/24 18:12:57;;;;;;;2.42;2.33;;;20.30;99.90;;;;;;5131020;28;20169;-80
2022/06/24 18:15:23;;;;;;;2.13;2.03;;;20.20;99.90;;;;;;5130833;28;20165;-81
2022/06/24 18:17:48;;;;;;;2.13;2.03;;;20.10;99.90;;;;;;5130816;28;20166;-81
2022/06/24 18:20:14;;;;;;;2.30;2.20;;;20.20;99.90;;;;;;5122840;27;20541;-81
2022/06/24 18:22:39;;;;;;;3.00;2.30;;;20.10;99.90;;;;;;5117447;28;20552;-81
2022/06/24 18:25:06;;;;;;;3.03;2.55;;;20.20;99.90;;;;;;5117157;28;20159;-81
2022/06/24 18:27:31;;;;;;;2.33;2.15;;;20.30;99.90;;;;;;5116813;28;20537;-83
2022/06/24 18:29:57;;;;;;;2.30;2.20;;;20.70;99.90;;;;;;5116907;28;20166;-82
2022/06/24 18:32:23;;;;;;;3.42;2.03;;;21.10;99.90;;;;;;5115515;28;20253;-75
2022/06/24 18:34:48;;;;;;;3.38;3.28;;;21.60;99.90;;;;;;5116731;28;20190;-74
2022/06/24 18:37:14;;;;;;;5.93;5.63;;;22.10;99.90;;;;;;5116481;28;20174;-75
2022/06/24 18:39:40;;;;;;;1.90;1.80;;;22.20;99.90;;;;;;5115486;28;20205;-75
2022/06/24 18:42:06;;;;;;;2.60;2.50;;;22.00;99.90;;;;;;5116540;28;20166;-75
2022/06/24 18:44:32;;;;;;;2.10;2.00;;;21.80;99.90;;;;;;5116477;28;20170;-74
2022/06/24 18:46:57;;;;;;;2.33;2.22;;;21.60;99.90;;;;;;5115245;28;20635;-74
2022/06/24 18:49:24;;;;;;;2.17;2.08;;;21.40;99.90;;;;;;5116209;28;20496;-74
2022/06/24 18:51:49;;;;;;;6.68;2.30;;;21.10;99.90;;;;;;5116134;28;20166;-74
2022/06/24 18:54:15;;;;;;;2.15;2.05;;;20.90;99.90;;;;;;5116129;28;20154;-74
2022/06/24 18:56:41;;;;;;;2.40;2.30;;;20.80;99.90;;;;;;5116058;28;20194;-74
2022/06/24 18:59:10;;;;;;;3.45;2.50;;;20.70;99.90;;;;;;5116234;28;20163;-74
2022/06/24 19:01:35;;;;;;;2.40;2.20;;;20.70;99.90;;;;;;5114956;28;20171;-74
2022/06/24 19:04:01;;;;;;;2.20;2.10;;;20.70;99.90;;;;;;5116057;28;20307;-75
2022/06/24 19:06:27;;;;;;;2.78;2.58;;;20.70;99.90;;;;;;5115941;28;20177;-74
2022/06/24 19:08:52;;;;;;;3.03;2.75;;;20.60;99.90;;;;;;5114645;28;20275;-74
2022/06/24 19:11:21;;;;;;;2.45;2.35;;;20.50;99.90;;;;;;5116087;28;20242;-74
2022/06/24 19:13:46;;;;;;;2.25;2.10;;;20.30;99.90;;;;;;5116029;28;20162;-74
2022/06/24 19:16:12;;;;;;;2.75;2.55;;;20.10;99.90;;;;;;5115767;28;20280;-74
2022/06/24 19:21:21;;;;;;;3.45;3.15;;;19.80;99.90;;;;;;5116126;28;20180;-74
2022/06/24 19:23:47;;;;;;;2.67;2.58;;;19.80;99.90;;;;;;5115896;28;20166;-75
2022/06/24 19:26:13;;;;;;;2.88;2.58;;;19.60;99.90;;;;;;5115628;28;20200;-74
2022/06/24 19:28:38;;;;;;;2.92;2.60;;;19.60;99.90;;;;;;5115593;28;20194;-74
2022/06/24 19:31:04;;;;;;;3.00;2.80;;;19.50;99.90;;;;;;5114914;28;20207;-74
2022/06/24 19:33:30;;;;;;;3.40;3.10;;;19.40;99.90;;;;;;5114132;28;20608;-74
